Time;durP1;ratioP1;P1;durP2;ratioP2;P2;SDS_P1;SDS_P2;PMS_P1;PMS_P2;Temp;Humidity;BMP_temperature;BMP_pressure;BME280_temperature;BME280_humidity;BME280_pressure;Samples;Min_cycle;Max_cycle;Signal;HPM_P1;HPM_P2
2020/12/22 00:01:54;;;;;;;3.20;2.28;;;;;;;;;;4952945;29;20402;-67
2020/12/22 00:04:20;;;;;;;2.03;1.88;;;;;;;;;;4952699;29;20053;-67
2020/12/22 00:06:46;;;;;;;3.75;1.70;;;;;;;;;;4952021;29;20058;-66
2020/12/22 00:09:12;;;;;;;2.80;1.90;;;;;;;;;;4952936;29;20043;-67
2020/12/22 00:11:38;;;;;;;2.28;1.50;;;;;;;;;;4952954;29;20054;-66
2020/12/22 00:14:05;;;;;;;1.63;1.40;;;;;;;;;;4952568;29;20052;-66
2020/12/22 00:16:36;;;;;;;2.45;1.40;;;;;;;;;;4951825;29;20055;-68
2020/12/22 00:19:03;;;;;;;2.03;1.30;;;;;;;;;;4952652;29;20059;-68
2020/12/22 00:21:33;;;;;;;1.80;1.40;;;;;;;;;;4952754;29;20094;-67
2020/12/22 00:23:59;;;;;;;1.90;1.50;;;;;;;;;;4952457;29;20051;-67
2020/12/22 00:26:26;;;;;;;1.60;1.38;;;;;;;;;;4951700;29;20074;-68
2020/12/22 00:28:52;;;;;;;1.48;1.33;;;;;;;;;;4952417;29;20486;-66
2020/12/22 00:31:19;;;;;;;1.00;1.00;;;;;;;;;;4952662;29;20455;-65
2020/12/22 00:33:45;;;;;;;1.20;1.10;;;;;;;;;;4952502;29;20039;-68
2020/12/22 00:36:12;;;;;;;1.42;1.27;;;;;;;;;;4951001;28;20051;-67
2020/12/22 00:38:38;;;;;;;3.10;1.52;;;;;;;;;;4952597;29;20054;-67
2020/12/22 00:41:05;;;;;;;1.55;1.00;;;;;;;;;;4952297;29;20075;-66
2020/12/22 00:43:31;;;;;;;1.70;1.38;;;;;;;;;;4952259;29;20055;-66
2020/12/22 00:45:57;;;;;;;2.03;1.23;;;;;;;;;;4951763;29;20058;-67
2020/12/22 00:48:26;;;;;;;1.15;1.00;;;;;;;;;;4952482;29;20425;-67
2020/12/22 00:50:52;;;;;;;1.50;1.20;;;;;;;;;;4936292;29;20502;-67
2020/12/22 00:53:19;;;;;;;2.10;1.33;;;;;;;;;;4952394;29;20137;-66
2020/12/22 00:55:45;;;;;;;1.20;1.10;;;;;;;;;;4951429;29;20410;-66
2020/12/22 00:58:11;;;;;;;1.30;1.10;;;;;;;;;;4952046;29;20054;-68
2020/12/22 01:00:38;;;;;;;1.20;1.10;;;;;;;;;;4953406;28;20055;-66
2020/12/22 01:03:05;;;;;;;2.13;1.05;;;;;;;;;;4951882;29;20519;-67
2020/12/22 01:05:32;;;;;;;1.38;1.00;;;;;;;;;;4951491;29;20230;-66
2020/12/22 01:07:59;;;;;;;1.63;1.10;;;;;;;;;;4936146;29;20062;-65
2020/12/22 01:10:25;;;;;;;1.25;1.00;;;;;;;;;;4953458;28;20047;-67
2020/12/22 01:12:53;;;;;;;0.85;0.73;;;;;;;;;;4952075;29;20048;-66
2020/12/22 01:15:20;;;;;;;1.08;0.98;;;;;;;;;;4951224;29;20118;-68
2020/12/22 01:17:47;;;;;;;1.17;1.08;;;;;;;;;;4951985;29;20054;-68
2020/12/22 01:20:13;;;;;;;2.92;0.93;;;;;;;;;;4951934;29;20513;-69
2020/12/22 01:22:39;;;;;;;0.88;0.85;;;;;;;;;;4952140;29;20058;-66
2020/12/22 01:25:05;;;;;;;0.70;0.70;;;;;;;;;;4951172;29;20058;-65
2020/12/22 01:27:31;;;;;;;1.48;1.30;;;;;;;;;;4951829;29;20051;-66
2020/12/22 01:29:58;;;;;;;1.85;0.77;;;;;;;;;;4951864;29;20050;-67
2020/12/22 01:32:24;;;;;;;1.33;0.80;;;;;;;;;;4952284;29;20051;-66
2020/12/22 01:34:50;;;;;;;0.80;0.80;;;;;;;;;;4935577;29;20051;-68
2020/12/22 01:37:16;;;;;;;1.05;0.60;;;;;;;;;;4951418;29;20114;-65
2020/12/22 01:39:42;;;;;;;3.80;0.50;;;;;;;;;;4951841;29;20059;-67
2020/12/22 01:42:09;;;;;;;1.48;0.52;;;;;;;;;;4951871;29;20059;-66
2020/12/22 01:44:35;;;;;;;1.48;0.50;;;;;;;;;;4951641;29;20052;-67
2020/12/22 01:47:02;;;;;;;0.63;0.63;;;;;;;;;;4948248;23;20058;-67
2020/12/22 01:49:28;;;;;;;0.65;0.50;;;;;;;;;;4951072;28;20066;-66
2020/12/22 01:51:57;;;;;;;0.68;0.60;;;;;;;;;;4951929;29;20048;-65
2020/12/22 01:54:25;;;;;;;0.40;0.40;;;;;;;;;;4951698;29;20052;-67
2020/12/22 01:56:51;;;;;;;0.55;0.47;;;;;;;;;;4935244;29;20056;-65
2020/12/22 01:59:18;;;;;;;0.65;0.65;;;;;;;;;;4936116;29;20056;-68
2020/12/22 02:01:44;;;;;;;0.43;0.43;;;;;;;;;;4951963;29;20056;-68
2020/12/22 02:04:11;;;;;;;0.47;0.47;;;;;;;;;;4932484;29;20056;-66
2020/12/22 02:14:12;;;;;;;0.32;0.32;;;;;;;;;;4963000;23;20150;-68
2020/12/22 02:16:38;;;;;;;1.15;0.82;;;;;;;;;;4955492;28;20345;-68
2020/12/22 02:19:24;;;;;;;0.68;0.60;;;;;;;;;;4954020;29;20047;-66
2020/12/22 02:24:51;;;;;;;0.35;0.30;;;;;;;;;;4928714;23;20055;-66
2020/12/22 02:27:18;;;;;;;0.30;0.30;;;;;;;;;;4953640;29;20091;-68
2020/12/22 02:29:44;;;;;;;2.00;0.40;;;;;;;;;;4954292;29;20402;-65
2020/12/22 02:32:10;;;;;;;0.20;0.20;;;;;;;;;;4954604;29;20482;-68
2020/12/22 02:34:36;;;;;;;0.20;0.20;;;;;;;;;;4954587;29;20059;-65
2020/12/22 02:37:02;;;;;;;0.60;0.35;;;;;;;;;;4953571;29;20105;-68
2020/12/22 02:39:29;;;;;;;0.10;0.10;;;;;;;;;;4954442;29;20544;-67
2020/12/22 02:41:55;;;;;;;0.95;0.30;;;;;;;;;;4954287;29;20051;-66
2020/12/22 02:44:21;;;;;;;0.73;0.32;;;;;;;;;;4954564;29;20051;-67
2020/12/22 02:46:47;;;;;;;0.17;0.17;;;;;;;;;;4953798;29;20058;-66
2020/12/22 02:49:14;;;;;;;0.10;0.10;;;;;;;;;;4938336;29;20081;-68
2020/12/22 02:51:40;;;;;;;0.47;0.28;;;;;;;;;;4954186;29;20054;-67
2020/12/22 02:54:06;;;;;;;0.13;0.10;;;;;;;;;;4954853;29;20066;-66
2020/12/22 02:56:33;;;;;;;0.55;0.20;;;;;;;;;;4954529;29;20518;-67
2020/12/22 02:59:00;;;;;;;0.20;0.10;;;;;;;;;;4953997;28;20490;-69
2020/12/22 03:01:26;;;;;;;1.67;0.13;;;;;;;;;;4955325;28;20055;-67
2020/12/22 03:03:52;;;;;;;0.40;0.20;;;;;;;;;;4953789;29;20397;-66
2020/12/22 03:06:18;;;;;;;0.10;0.10;;;;;;;;;;4953010;29;20062;-66
2020/12/22 03:08:44;;;;;;;0.17;0.15;;;;;;;;;;4953631;29;20051;-67
2020/12/22 03:11:10;;;;;;;0.20;0.10;;;;;;;;;;4953963;29;20394;-70
2020/12/22 03:13:37;;;;;;;0.17;0.17;;;;;;;;;;4953900;29;20513;-67
2020/12/22 03:16:03;;;;;;;0.63;0.20;;;;;;;;;;4952697;29;20085;-66
2020/12/22 03:18:29;;;;;;;0.38;0.20;;;;;;;;;;4954050;29;20398;-68
2020/12/22 03:20:55;;;;;;;0.50;0.20;;;;;;;;;;4953575;29;20434;-68
2020/12/22 03:23:22;;;;;;;0.40;0.22;;;;;;;;;;4953909;29;20056;-66
2020/12/22 03:25:48;;;;;;;0.30;0.30;;;;;;;;;;4936600;29;20050;-69
2020/12/22 03:28:14;;;;;;;0.10;0.10;;;;;;;;;;4953530;29;20051;-68
2020/12/22 03:30:40;;;;;;;0.40;0.20;;;;;;;;;;4953687;29;20383;-69
2020/12/22 03:33:06;;;;;;;0.17;0.10;;;;;;;;;;4937405;29;20081;-66
2020/12/22 03:35:32;;;;;;;0.20;0.20;;;;;;;;;;4952550;29;20055;-67
2020/12/22 03:37:59;;;;;;;0.55;0.20;;;;;;;;;;4953031;29;20051;-67
2020/12/22 03:40:26;;;;;;;0.20;0.20;;;;;;;;;;4953314;29;20062;-66
2020/12/22 03:42:53;;;;;;;0.47;0.10;;;;;;;;;;4953293;29;20054;-67
2020/12/22 03:45:19;;;;;;;0.10;0.10;;;;;;;;;;4952874;29;20094;-67
2020/12/22 03:47:45;;;;;;;0.10;0.10;;;;;;;;;;4952675;29;20354;-68
2020/12/22 03:50:22;;;;;;;0.20;0.03;;;;;;;;;;4953530;29;20869;-68
2020/12/22 03:52:48;;;;;;;0.20;0.08;;;;;;;;;;4953126;29;20054;-69
2020/12/22 03:55:15;;;;;;;0.20;0.20;;;;;;;;;;4952630;29;20442;-72
2020/12/22 03:57:42;;;;;;;0.17;0.17;;;;;;;;;;4952825;29;20051;-65
2020/12/22 04:00:10;;;;;;;0.35;0.20;;;;;;;;;;4952753;29;20334;-68
2020/12/22 04:02:36;;;;;;;0.15;0.15;;;;;;;;;;4953318;29;20051;-65
2020/12/22 04:05:03;;;;;;;0.10;0.10;;;;;;;;;;4961009;23;20438;-67
2020/12/22 04:07:29;;;;;;;0.10;0.10;;;;;;;;;;4957612;23;20047;-68
2020/12/22 04:09:56;;;;;;;0.45;0.43;;;;;;;;;;4952953;29;20051;-67
2020/12/22 04:12:22;;;;;;;0.10;0.10;;;;;;;;;;4968467;28;20047;-66
2020/12/22 04:14:48;;;;;;;0.22;0.20;;;;;;;;;;4952646;29;20047;-66
2020/12/22 04:17:14;;;;;;;0.05;0.05;;;;;;;;;;4967992;28;20383;-69
2020/12/22 04:19:41;;;;;;;0.63;0.38;;;;;;;;;;4950920;29;20122;-64
2020/12/22 04:22:07;;;;;;;2.22;0.20;;;;;;;;;;4952657;29;20106;-68
2020/12/22 04:24:33;;;;;;;0.20;0.20;;;;;;;;;;4952734;29;20055;-65
2020/12/22 04:27:00;;;;;;;0.20;0.10;;;;;;;;;;4951779;29;20051;-67
2020/12/22 04:29:26;;;;;;;0.55;0.20;;;;;;;;;;4952558;29;20494;-67
2020/12/22 04:31:52;;;;;;;0.50;0.40;;;;;;;;;;4952539;29;20102;-68
2020/12/22 04:34:18;;;;;;;0.28;0.13;;;;;;;;;;4952588;29;20106;-68
2020/12/22 04:36:46;;;;;;;0.50;0.20;;;;;;;;;;4952155;29;20054;-68
2020/12/22 04:39:13;;;;;;;0.47;0.47;;;;;;;;;;4952956;29;20087;-67
2020/12/22 04:41:44;;;;;;;0.13;0.13;;;;;;;;;;4953035;29;20063;-69
2020/12/22 04:44:10;;;;;;;0.32;0.20;;;;;;;;;;4952516;29;20122;-68
2020/12/22 04:46:36;;;;;;;0.13;0.10;;;;;;;;;;4950645;29;20047;-68
2020/12/22 04:49:03;;;;;;;1.45;0.20;;;;;;;;;;4936071;29;20055;-66
2020/12/22 04:51:30;;;;;;;0.10;0.10;;;;;;;;;;4936344;29;20383;-69
2020/12/22 04:54:05;;;;;;;0.30;0.20;;;;;;;;;;4938166;29;20716;-69
2020/12/22 04:56:31;;;;;;;0.43;0.10;;;;;;;;;;4951555;29;20486;-67
2020/12/22 04:58:58;;;;;;;0.10;0.10;;;;;;;;;;4952168;29;20051;-66
2020/12/22 05:01:24;;;;;;;0.45;0.15;;;;;;;;;;4952424;29;20086;-68
2020/12/22 05:03:50;;;;;;;0.00;0.00;;;;;;;;;;4936110;29;20051;-67
2020/12/22 05:06:16;;;;;;;0.22;0.20;;;;;;;;;;4951603;29;20087;-66
2020/12/22 05:08:43;;;;;;;0.40;0.10;;;;;;;;;;4947452;29;20054;-66
2020/12/22 05:11:15;;;;;;;0.30;0.30;;;;;;;;;;4952541;28;20058;-68
2020/12/22 05:13:42;;;;;;;;;;;;;;;;;;4951821;29;20122;-65
2020/12/22 05:16:09;;;;;;;0.70;0.70;;;;;;;;;;4950537;29;20373;-66
2020/12/22 05:18:35;;;;;;;0.35;0.35;;;;;;;;;;4952221;29;20051;-66
2020/12/22 05:21:18;;;;;;;0.15;0.15;;;;;;;;;;4952060;29;20058;-65
2020/12/22 05:23:44;;;;;;;0.20;0.20;;;;;;;;;;4953278;28;20055;-68
2020/12/22 05:26:10;;;;;;;0.35;0.35;;;;;;;;;;4955169;29;20054;-65
2020/12/22 05:28:36;;;;;;;1.23;0.85;;;;;;;;;;4924120;29;20059;-68
2020/12/22 05:31:03;;;;;;;0.93;0.75;;;;;;;;;;4955625;29;20047;-65
2020/12/22 05:33:29;;;;;;;2.70;2.28;;;;;;;;;;4955526;29;20057;-65
2020/12/22 05:35:55;;;;;;;6.25;0.75;;;;;;;;;;4954624;29;20040;-67
2020/12/22 05:38:21;;;;;;;0.90;0.40;;;;;;;;;;4939971;29;20047;-68
2020/12/22 05:40:48;;;;;;;0.50;0.40;;;;;;;;;;4939721;29;20140;-67
2020/12/22 05:43:14;;;;;;;1.70;0.20;;;;;;;;;;4955173;29;20495;-66
2020/12/22 05:45:43;;;;;;;3.30;0.25;;;;;;;;;;4954905;29;20055;-66
2020/12/22 05:48:14;;;;;;;0.30;0.20;;;;;;;;;;4955527;29;20058;-65
2020/12/22 05:50:47;;;;;;;1.08;0.30;;;;;;;;;;4955434;29;20073;-65
2020/12/22 05:53:14;;;;;;;0.98;0.10;;;;;;;;;;4955171;29;20577;-67
2020/12/22 05:55:40;;;;;;;0.10;0.10;;;;;;;;;;4923368;29;20055;-66
2020/12/22 05:58:13;;;;;;;0.38;0.10;;;;;;;;;;4955126;29;20054;-65
2020/12/22 06:00:43;;;;;;;0.10;0.10;;;;;;;;;;4954838;29;20047;-67
2020/12/22 06:03:13;;;;;;;0.10;0.10;;;;;;;;;;4956229;28;20051;-67
2020/12/22 06:05:41;;;;;;;1.52;0.20;;;;;;;;;;4954362;29;20517;-66
2020/12/22 06:08:09;;;;;;;0.43;0.20;;;;;;;;;;4954924;29;20051;-65
2020/12/22 06:10:36;;;;;;;0.40;0.22;;;;;;;;;;4954675;29;20501;-66
2020/12/22 06:13:04;;;;;;;0.13;0.10;;;;;;;;;;4939019;29;20055;-67
2020/12/22 06:15:30;;;;;;;0.40;0.10;;;;;;;;;;4954344;29;20052;-68
2020/12/22 06:17:56;;;;;;;0.10;0.10;;;;;;;;;;4954967;29;20048;-66
2020/12/22 06:20:24;;;;;;;0.98;0.13;;;;;;;;;;4954301;29;20043;-66
2020/12/22 06:22:51;;;;;;;1.27;0.10;;;;;;;;;;4954266;29;20078;-69
2020/12/22 06:25:21;;;;;;;0.20;0.10;;;;;;;;;;4954463;29;20059;-66
2020/12/22 06:27:48;;;;;;;0.15;0.15;;;;;;;;;;4954537;29;20410;-67
2020/12/22 06:30:16;;;;;;;1.58;0.10;;;;;;;;;;4960255;29;20070;-67
2020/12/22 06:32:44;;;;;;;0.10;0.10;;;;;;;;;;4960692;29;20047;-66
2020/12/22 06:35:30;;;;;;;0.13;0.10;;;;;;;;;;4961233;28;20075;-66
2020/12/22 06:37:57;;;;;;;0.10;0.10;;;;;;;;;;4958714;29;20091;-66
2020/12/22 06:40:53;;;;;;;0.35;0.30;;;;;;;;;;4954651;29;20051;-68
2020/12/22 06:43:45;;;;;;;1.05;0.20;;;;;;;;;;4954584;29;20104;-66
2020/12/22 06:46:51;;;;;;;1.07;0.23;;;;;;;;;;4953916;29;20062;-69
2020/12/22 06:49:20;;;;;;;0.20;0.10;;;;;;;;;;4934738;29;20051;-65
2020/12/22 06:51:46;;;;;;;0.10;0.03;;;;;;;;;;4938252;29;20051;-71
2020/12/22 06:54:12;;;;;;;0.45;0.15;;;;;;;;;;4954375;29;20055;-66
2020/12/22 06:56:43;;;;;;;0.73;0.10;;;;;;;;;;4953592;29;20051;-67
2020/12/22 06:59:13;;;;;;;0.30;0.30;;;;;;;;;;4954107;29;20058;-68
2020/12/22 07:01:45;;;;;;;0.20;0.20;;;;;;;;;;4953566;29;20053;-66
2020/12/22 07:04:19;;;;;;;0.50;0.25;;;;;;;;;;4954033;29;20051;-65
2020/12/22 07:06:59;;;;;;;0.35;0.20;;;;;;;;;;4953330;29;20055;-67
2020/12/22 07:09:30;;;;;;;0.50;0.30;;;;;;;;;;4954093;29;20051;-68
2020/12/22 07:12:10;;;;;;;0.43;0.20;;;;;;;;;;4953201;29;20051;-67
2020/12/22 07:14:41;;;;;;;1.15;0.60;;;;;;;;;;4953878;29;20406;-68
2020/12/22 07:17:10;;;;;;;0.28;0.20;;;;;;;;;;4937785;29;20138;-67
2020/12/22 07:19:36;;;;;;;0.25;0.25;;;;;;;;;;4937978;29;20062;-68
2020/12/22 07:22:05;;;;;;;0.65;0.25;;;;;;;;;;4953252;29;20043;-66
2020/12/22 07:24:34;;;;;;;0.35;0.20;;;;;;;;;;4953738;29;20051;-68
2020/12/22 07:27:09;;;;;;;0.65;0.65;;;;;;;;;;4952925;29;20078;-68
2020/12/22 07:29:39;;;;;;;0.13;0.10;;;;;;;;;;4953685;29;20062;-65
2020/12/22 07:32:06;;;;;;;0.28;0.10;;;;;;;;;;4950009;29;20058;-65
2020/12/22 07:34:32;;;;;;;0.50;0.40;;;;;;;;;;4951677;29;20058;-65
2020/12/22 07:37:12;;;;;;;0.85;0.60;;;;;;;;;;4950639;29;20043;-65
2020/12/22 07:39:39;;;;;;;0.82;0.40;;;;;;;;;;4951686;29;20062;-67
2020/12/22 07:42:14;;;;;;;0.40;0.22;;;;;;;;;;4950727;29;20051;-66
2020/12/22 07:44:41;;;;;;;2.95;0.43;;;;;;;;;;4951046;29;20058;-67
2020/12/22 07:47:08;;;;;;;0.63;0.32;;;;;;;;;;4949960;28;20047;-69
2020/12/22 07:49:38;;;;;;;2.78;0.28;;;;;;;;;;4952589;28;20066;-66
2020/12/22 07:52:13;;;;;;;0.82;0.40;;;;;;;;;;4950911;29;20098;-64
2020/12/22 07:54:40;;;;;;;0.50;0.30;;;;;;;;;;4951586;29;20062;-66
2020/12/22 07:57:06;;;;;;;1.30;0.57;;;;;;;;;;4950433;29;20498;-65
2020/12/22 07:59:33;;;;;;;2.95;0.85;;;;;;;;;;4935086;29;20062;-65
2020/12/22 08:01:59;;;;;;;4.68;1.27;;;;;;;;;;4950471;29;20048;-66
2020/12/22 08:04:27;;;;;;;1.30;0.70;;;;;;;;;;4950813;29;20052;-64
2020/12/22 08:06:56;;;;;;;1.35;0.50;;;;;;;;;;4957594;23;20043;-67
2020/12/22 08:09:28;;;;;;;0.60;0.20;;;;;;;;;;4971844;23;20062;-69
2020/12/22 08:12:02;;;;;;;1.13;0.73;;;;;;;;;;4950852;29;20059;-66
2020/12/22 08:14:31;;;;;;;0.60;0.40;;;;;;;;;;4950994;29;20055;-66
2020/12/22 08:17:00;;;;;;;0.47;0.20;;;;;;;;;;4950148;29;20055;-67
2020/12/22 08:19:34;;;;;;;0.28;0.22;;;;;;;;;;4950538;29;20053;-65
2020/12/22 08:22:00;;;;;;;0.20;0.20;;;;;;;;;;4935781;29;20055;-66
2020/12/22 08:24:29;;;;;;;0.40;0.30;;;;;;;;;;4950332;29;20055;-66
2020/12/22 08:26:56;;;;;;;0.40;0.20;;;;;;;;;;4950088;29;20051;-69
2020/12/22 08:29:22;;;;;;;0.25;0.20;;;;;;;;;;4950603;29;20058;-67
2020/12/22 08:31:51;;;;;;;0.65;0.30;;;;;;;;;;4950643;29;20059;-65
2020/12/22 08:34:17;;;;;;;0.43;0.20;;;;;;;;;;4934726;29;20051;-62
2020/12/22 08:36:45;;;;;;;0.82;0.28;;;;;;;;;;4939505;29;20094;-62
2020/12/22 08:39:18;;;;;;;0.43;0.25;;;;;;;;;;4939004;28;20089;-63
2020/12/22 08:41:47;;;;;;;1.05;0.70;;;;;;;;;;4940976;29;20394;-64
2020/12/22 08:44:13;;;;;;;0.35;0.30;;;;;;;;;;4949612;28;20487;-64
2020/12/22 08:46:40;;;;;;;0.28;0.28;;;;;;;;;;4938052;29;20066;-66
2020/12/22 08:49:20;;;;;;;0.13;0.13;;;;;;;;;;4954919;28;20051;-64
2020/12/22 08:51:47;;;;;;;1.35;0.30;;;;;;;;;;4950162;28;20051;-64
2020/12/22 08:54:14;;;;;;;0.45;0.40;;;;;;;;;;4937748;29;20087;-66
2020/12/22 08:56:41;;;;;;;0.28;0.20;;;;;;;;;;4951223;28;20059;-62
2020/12/22 08:59:09;;;;;;;0.75;0.75;;;;;;;;;;4955920;28;20055;-63
2020/12/22 09:01:43;;;;;;;0.73;0.10;;;;;;;;;;4941414;29;20067;-66
2020/12/22 09:04:10;;;;;;;0.10;0.10;;;;;;;;;;4945085;29;20569;-66
2020/12/22 09:06:44;;;;;;;1.13;0.20;;;;;;;;;;4960152;28;20051;-65
2020/12/22 09:09:15;;;;;;;1.35;0.10;;;;;;;;;;4930650;28;20379;-66
2020/12/22 09:11:45;;;;;;;0.70;0.20;;;;;;;;;;4952081;28;20204;-65
2020/12/22 09:14:13;;;;;;;0.73;0.20;;;;;;;;;;4963182;28;20387;-63
2020/12/22 09:16:55;;;;;;;0.40;0.30;;;;;;;;;;4957332;28;20051;-66
2020/12/22 09:19:29;;;;;;;0.10;0.10;;;;;;;;;;4943634;28;20055;-64
2020/12/22 09:22:00;;;;;;;0.25;0.05;;;;;;;;;;4957346;28;20082;-66
2020/12/22 09:30:44;;;;;;;0.20;0.10;;;;;;;;;;4902917;29;20380;-64
2020/12/22 09:33:11;;;;;;;0.40;0.35;;;;;;;;;;4913048;29;20083;-64
2020/12/22 09:35:37;;;;;;;0.28;0.20;;;;;;;;;;4918160;29;20048;-64
2020/12/22 09:38:03;;;;;;;0.10;0.10;;;;;;;;;;4912374;29;20051;-65
2020/12/22 09:40:29;;;;;;;1.98;1.13;;;;;;;;;;4922192;29;20083;-65
2020/12/22 09:42:56;;;;;;;3.17;2.45;;;;;;;;;;4919789;29;20488;-65
2020/12/22 09:45:22;;;;;;;0.77;0.30;;;;;;;;;;4928791;29;20041;-65
2020/12/22 09:47:49;;;;;;;1.20;0.30;;;;;;;;;;4914985;29;20410;-66
2020/12/22 09:50:17;;;;;;;1.67;0.20;;;;;;;;;;4920132;29;20492;-66
2020/12/22 09:52:44;;;;;;;1.25;0.43;;;;;;;;;;4919056;29;20104;-65
2020/12/22 09:55:10;;;;;;;0.35;0.30;;;;;;;;;;4914083;29;20510;-66
2020/12/22 09:57:37;;;;;;;0.60;0.20;;;;;;;;;;4917621;29;20055;-64
2020/12/22 10:00:04;;;;;;;0.20;0.20;;;;;;;;;;4912524;29;20060;-66
2020/12/22 10:02:32;;;;;;;0.30;0.28;;;;;;;;;;4917383;29;20048;-66
2020/12/22 10:04:58;;;;;;;0.28;0.20;;;;;;;;;;4918771;29;20048;-67
2020/12/22 10:07:24;;;;;;;1.13;0.20;;;;;;;;;;4919266;29;20048;-65
2020/12/22 10:09:50;;;;;;;1.35;0.20;;;;;;;;;;4917948;29;20059;-66
2020/12/22 10:12:16;;;;;;;0.40;0.30;;;;;;;;;;4917930;29;20057;-65
2020/12/22 10:14:42;;;;;;;0.55;0.20;;;;;;;;;;4918278;29;20052;-65
2020/12/22 10:17:09;;;;;;;0.20;0.20;;;;;;;;;;4921054;29;20079;-65
2020/12/22 10:19:35;;;;;;;0.22;0.22;;;;;;;;;;4912877;29;20527;-64
2020/12/22 10:22:02;;;;;;;1.60;0.43;;;;;;;;;;4918270;29;20045;-66
2020/12/22 10:24:35;;;;;;;0.82;0.30;;;;;;;;;;4911399;29;20063;-65
2020/12/22 10:27:01;;;;;;;0.47;0.43;;;;;;;;;;4918763;29;20053;-65
2020/12/22 10:29:28;;;;;;;0.30;0.20;;;;;;;;;;4915531;29;20067;-66
2020/12/22 10:31:54;;;;;;;0.40;0.30;;;;;;;;;;4920497;29;20055;-64
2020/12/22 10:34:21;;;;;;;0.93;0.73;;;;;;;;;;4913794;29;20052;-66
2020/12/22 10:36:47;;;;;;;0.47;0.40;;;;;;;;;;4919447;29;20056;-66
2020/12/22 10:39:13;;;;;;;0.57;0.40;;;;;;;;;;4918540;29;20063;-65
2020/12/22 10:41:39;;;;;;;1.13;0.20;;;;;;;;;;4918804;29;20566;-65
2020/12/22 10:44:05;;;;;;;1.35;0.20;;;;;;;;;;4925857;29;20402;-65
2020/12/22 10:46:32;;;;;;;0.20;0.20;;;;;;;;;;4929235;29;20048;-66
2020/12/22 10:48:58;;;;;;;1.80;0.30;;;;;;;;;;4911883;29;20071;-66
2020/12/22 10:51:25;;;;;;;0.30;0.30;;;;;;;;;;4918836;29;20055;-66
2020/12/22 10:53:51;;;;;;;1.55;0.88;;;;;;;;;;4919132;29;20063;-64
2020/12/22 10:56:17;;;;;;;0.80;0.50;;;;;;;;;;4913722;29;20056;-65
2020/12/22 10:58:44;;;;;;;0.50;0.40;;;;;;;;;;4918780;29;20052;-64
2020/12/22 11:01:14;;;;;;;0.70;0.40;;;;;;;;;;4911505;29;20056;-66
2020/12/22 11:03:42;;;;;;;2.15;0.20;;;;;;;;;;4919888;29;20052;-66
2020/12/22 11:06:16;;;;;;;0.20;0.20;;;;;;;;;;4919131;29;20135;-66
2020/12/22 11:08:43;;;;;;;0.43;0.28;;;;;;;;;;4920803;29;20048;-65
2020/12/22 11:11:10;;;;;;;0.98;0.30;;;;;;;;;;4915021;29;20099;-66
2020/12/22 11:13:36;;;;;;;0.45;0.30;;;;;;;;;;4916466;29;20063;-67
2020/12/22 11:16:05;;;;;;;1.33;0.20;;;;;;;;;;4914010;29;20048;-68
2020/12/22 11:18:35;;;;;;;0.68;0.22;;;;;;;;;;4921131;29;20087;-65
2020/12/22 11:21:07;;;;;;;0.40;0.30;;;;;;;;;;4915263;29;20052;-67
2020/12/22 11:23:42;;;;;;;1.40;0.60;;;;;;;;;;4908295;29;20447;-63
2020/12/22 11:26:10;;;;;;;1.80;1.20;;;;;;;;;;4917294;29;20057;-62
2020/12/22 11:28:37;;;;;;;0.75;0.50;;;;;;;;;;4912280;29;20103;-62
2020/12/22 11:31:03;;;;;;;2.97;0.80;;;;;;;;;;4917916;29;20056;-62
2020/12/22 11:33:29;;;;;;;4.45;2.53;;;;;;;;;;4919206;29;20484;-62
2020/12/22 11:35:56;;;;;;;5.47;2.92;;;;;;;;;;4921046;29;20431;-62
2020/12/22 11:38:22;;;;;;;0.50;0.40;;;;;;;;;;4919209;29;20373;-62
2020/12/22 11:40:48;;;;;;;1.13;0.60;;;;;;;;;;4918515;29;20047;-61
2020/12/22 11:43:14;;;;;;;2.35;0.80;;;;;;;;;;4916135;29;20052;-62
2020/12/22 11:45:40;;;;;;;1.17;0.75;;;;;;;;;;4902028;29;20533;-62
2020/12/22 11:48:07;;;;;;;0.85;0.75;;;;;;;;;;4916874;29;20052;-62
2020/12/22 11:50:33;;;;;;;1.77;1.30;;;;;;;;;;4916684;29;20157;-64
2020/12/22 11:52:59;;;;;;;3.03;1.20;;;;;;;;;;4916573;29;20048;-64
2020/12/22 11:55:32;;;;;;;1.30;0.75;;;;;;;;;;4915953;29;20060;-64
2020/12/22 11:57:58;;;;;;;0.77;0.63;;;;;;;;;;4921731;29;20044;-65
2020/12/22 12:00:25;;;;;;;0.30;0.30;;;;;;;;;;4915472;29;20054;-64
2020/12/22 12:02:51;;;;;;;0.63;0.50;;;;;;;;;;4919251;29;20400;-64
2020/12/22 12:05:17;;;;;;;0.60;0.60;;;;;;;;;;4914964;29;20068;-64
2020/12/22 12:07:43;;;;;;;1.38;0.50;;;;;;;;;;4902580;29;20036;-65
2020/12/22 12:10:10;;;;;;;0.47;0.40;;;;;;;;;;4915364;29;20063;-64
2020/12/22 12:12:36;;;;;;;1.45;0.32;;;;;;;;;;4921532;29;20055;-64
2020/12/22 12:15:02;;;;;;;0.63;0.60;;;;;;;;;;4917867;29;20399;-64
2020/12/22 12:17:29;;;;;;;1.33;0.90;;;;;;;;;;4914356;29;20095;-64
2020/12/22 12:19:56;;;;;;;0.80;0.80;;;;;;;;;;4915835;29;20354;-65
2020/12/22 12:22:22;;;;;;;2.75;0.70;;;;;;;;;;4919296;29;20069;-65
2020/12/22 12:24:48;;;;;;;1.60;0.95;;;;;;;;;;4916350;29;20064;-65
2020/12/22 12:27:14;;;;;;;0.70;0.50;;;;;;;;;;4915219;29;20051;-65
2020/12/22 12:29:40;;;;;;;0.45;0.40;;;;;;;;;;4915579;29;20360;-64
2020/12/22 12:32:07;;;;;;;0.60;0.50;;;;;;;;;;4908866;29;20048;-65
2020/12/22 12:34:33;;;;;;;0.85;0.50;;;;;;;;;;4921355;29;20056;-65
2020/12/22 12:36:59;;;;;;;1.25;0.60;;;;;;;;;;4916808;29;20048;-64
2020/12/22 12:39:25;;;;;;;0.40;0.30;;;;;;;;;;4917005;29;20048;-65
2020/12/22 12:41:52;;;;;;;0.50;0.50;;;;;;;;;;4915096;29;20044;-65
2020/12/22 12:44:18;;;;;;;0.73;0.52;;;;;;;;;;4916354;29;20488;-65
2020/12/22 12:46:44;;;;;;;0.60;0.50;;;;;;;;;;4914292;29;20048;-65
2020/12/22 12:49:14;;;;;;;1.08;0.45;;;;;;;;;;4918648;29;20064;-65
2020/12/22 12:51:43;;;;;;;1.20;0.30;;;;;;;;;;4918207;29;20075;-64
2020/12/22 12:54:14;;;;;;;1.65;0.32;;;;;;;;;;4925881;29;20078;-65
2020/12/22 12:56:40;;;;;;;1.90;0.40;;;;;;;;;;4914718;29;20060;-64
2020/12/22 12:59:06;;;;;;;0.40;0.40;;;;;;;;;;4916197;29;20060;-65
2020/12/22 13:01:39;;;;;;;0.20;0.20;;;;;;;;;;4921368;29;20063;-65
2020/12/22 13:04:06;;;;;;;0.57;0.30;;;;;;;;;;4928551;29;20171;-65
2020/12/22 13:06:34;;;;;;;0.22;0.20;;;;;;;;;;4928474;29;20048;-64
2020/12/22 13:09:00;;;;;;;0.20;0.20;;;;;;;;;;4928684;29;20055;-64
2020/12/22 13:11:27;;;;;;;1.75;0.20;;;;;;;;;;4928534;29;20048;-65
2020/12/22 13:13:54;;;;;;;0.25;0.25;;;;;;;;;;4928371;29;20059;-65
2020/12/22 13:16:20;;;;;;;0.68;0.40;;;;;;;;;;4927527;29;20052;-66
2020/12/22 13:18:46;;;;;;;0.52;0.30;;;;;;;;;;4928663;29;20067;-65
2020/12/22 13:21:12;;;;;;;0.40;0.20;;;;;;;;;;4928755;29;20067;-65
2020/12/22 13:23:40;;;;;;;0.30;0.30;;;;;;;;;;4913029;29;20063;-65
2020/12/22 13:26:06;;;;;;;1.13;0.30;;;;;;;;;;4928151;29;20104;-65
2020/12/22 13:28:32;;;;;;;1.42;0.38;;;;;;;;;;4928559;29;20048;-65
2020/12/22 13:30:58;;;;;;;0.20;0.20;;;;;;;;;;4928437;29;20064;-65
2020/12/22 13:33:25;;;;;;;0.50;0.25;;;;;;;;;;4928586;29;20052;-65
2020/12/22 13:35:51;;;;;;;0.80;0.20;;;;;;;;;;4919344;29;21517;-65
2020/12/22 13:38:37;;;;;;;0.50;0.40;;;;;;;;;;4917009;29;20048;-65
2020/12/22 13:41:07;;;;;;;1.75;0.20;;;;;;;;;;4903488;29;20063;-65
2020/12/22 13:43:33;;;;;;;0.20;0.20;;;;;;;;;;4916150;29;20048;-65
2020/12/22 13:45:59;;;;;;;0.52;0.40;;;;;;;;;;4917790;29;20052;-65
2020/12/22 13:48:25;;;;;;;0.85;0.50;;;;;;;;;;4864466;29;20048;-66
2020/12/22 13:50:56;;;;;;;0.40;0.40;;;;;;;;;;4913314;29;20135;-66
2020/12/22 13:53:22;;;;;;;0.30;0.30;;;;;;;;;;4922106;29;20151;-66
2020/12/22 13:55:48;;;;;;;1.58;0.40;;;;;;;;;;4917420;29;20052;-66
2020/12/22 13:58:15;;;;;;;0.10;0.10;;;;;;;;;;4918392;29;20550;-65
2020/12/22 14:00:41;;;;;;;0.57;0.40;;;;;;;;;;4920885;29;20105;-65
2020/12/22 14:03:08;;;;;;;2.65;1.92;;;;;;;;;;4918765;29;20433;-65
2020/12/22 14:05:34;;;;;;;4.25;3.15;;;;;;;;;;4920470;29;20115;-66
2020/12/22 14:08:03;;;;;;;7.68;4.30;;;;;;;;;;4919473;29;20054;-65
2020/12/22 14:10:30;;;;;;;10.77;5.85;;;;;;;;;;4920537;29;20079;-65
2020/12/22 14:12:56;;;;;;;4.57;3.97;;;;;;;;;;4917565;29;20062;-65
2020/12/22 14:15:22;;;;;;;1.15;0.88;;;;;;;;;;4919973;29;20059;-65
2020/12/22 14:17:48;;;;;;;2.53;1.00;;;;;;;;;;4920264;29;20495;-65
2020/12/22 14:20:15;;;;;;;0.70;0.40;;;;;;;;;;4928983;29;20060;-66
2020/12/22 14:22:41;;;;;;;0.68;0.60;;;;;;;;;;4931658;29;20056;-65
2020/12/22 14:25:25;;;;;;;1.23;1.05;;;;;;;;;;4915589;29;20052;-66
2020/12/22 14:27:51;;;;;;;3.53;1.20;;;;;;;;;;4931104;29;20052;-65
2020/12/22 14:30:17;;;;;;;1.20;1.10;;;;;;;;;;4931521;29;20058;-65
2020/12/22 14:32:43;;;;;;;1.60;1.38;;;;;;;;;;4931615;29;20268;-65
2020/12/22 14:35:10;;;;;;;0.93;0.80;;;;;;;;;;4930912;29;20597;-65
2020/12/22 14:37:40;;;;;;;2.10;1.58;;;;;;;;;;4930784;29;20056;-65
2020/12/22 14:40:06;;;;;;;1.23;1.05;;;;;;;;;;4915642;29;20052;-65
2020/12/22 14:42:32;;;;;;;1.23;1.13;;;;;;;;;;4931366;29;20052;-65
2020/12/22 14:44:59;;;;;;;1.73;0.45;;;;;;;;;;4930797;29;20419;-65
2020/12/22 14:47:25;;;;;;;0.70;0.70;;;;;;;;;;4930647;29;20499;-66
2020/12/22 14:49:51;;;;;;;0.60;0.60;;;;;;;;;;4930871;29;20071;-66
2020/12/22 14:52:17;;;;;;;1.08;0.70;;;;;;;;;;4931545;29;20080;-66
2020/12/22 14:54:44;;;;;;;3.95;1.38;;;;;;;;;;4930916;29;20056;-65
2020/12/22 14:57:14;;;;;;;0.60;0.60;;;;;;;;;;4929915;29;20087;-65
2020/12/22 14:59:41;;;;;;;0.40;0.40;;;;;;;;;;4915456;29;20059;-66
2020/12/22 15:02:09;;;;;;;1.35;0.68;;;;;;;;;;4930667;29;20084;-66
2020/12/22 15:04:35;;;;;;;0.40;0.40;;;;;;;;;;4916236;29;20052;-66